createdAt,value
2022-08-25T00:07:42.404Z,69.81
2022-08-25T00:16:18.776Z,70.19
2022-08-25T00:19:18.964Z,70.17
2022-08-25T00:22:44.404Z,69.88
2022-08-25T00:50:05.076Z,69.79
2022-08-25T00:52:53.798Z,69.38
2022-08-25T00:56:09.346Z,69.36
2022-08-25T01:02:31.602Z,69.75
2022-08-25T01:09:11.500Z,69.61
2022-08-25T01:15:41.086Z,69.46
2022-08-25T01:19:08.410Z,69.71
2022-08-25T01:53:33.621Z,68.48
2022-08-25T01:56:54.752Z,68.54
2022-08-25T02:07:31.141Z,68.12
2022-08-25T02:10:51.888Z,68.36
2022-08-25T02:17:16.065Z,67.52
2022-08-25T02:19:56.465Z,67.56
2022-08-25T02:26:03.572Z,67.14
2022-08-25T02:29:09.937Z,66.87
2022-08-25T02:48:25.964Z,66.10
2022-08-25T02:51:32.889Z,65.71
2022-08-25T03:17:35.650Z,64.54
2022-08-25T03:48:20.056Z,63.46
2022-08-25T04:01:26.907Z,62.81
2022-08-25T04:30:25.243Z,62.70
2022-08-25T04:33:14.409Z,63.01
2022-08-25T04:46:32.473Z,62.56
2022-08-25T04:49:15.769Z,62.43
2022-08-25T04:51:57.830Z,62.39
2022-08-25T04:54:40.984Z,62.31
2022-08-25T04:57:31.486Z,62.44
2022-08-25T05:00:20.843Z,62.29
2022-08-25T05:15:17.550Z,62.51
2022-08-25T05:16:44.688Z,62.22
2022-08-25T05:19:59.783Z,62.38
2022-08-25T05:32:40.153Z,62.56
2022-08-25T05:39:14.425Z,62.52
2022-08-25T05:41:22.062Z,62.59
2022-08-25T05:44:36.048Z,62.63
2022-08-25T05:47:03.056Z,62.64
2022-08-25T05:50:07.184Z,62.47
2022-08-25T05:52:45.072Z,62.74
2022-08-25T05:55:12.097Z,62.55
2022-08-25T05:57:43.353Z,62.55
2022-08-25T06:00:11.238Z,62.65
2022-08-25T06:02:59.671Z,62.61
2022-08-25T06:05:42.139Z,62.62
2022-08-25T06:08:34.964Z,62.52
2022-08-25T06:11:15.083Z,62.61
2022-08-25T06:14:02.462Z,62.59
2022-08-25T06:16:40.452Z,62.64
2022-08-25T06:19:08.633Z,62.47
2022-08-25T06:21:37.534Z,62.84
2022-08-25T06:24:05.080Z,62.46
2022-08-25T06:26:31.907Z,62.50
2022-08-25T06:28:59.040Z,62.41
2022-08-25T06:31:26.114Z,62.50
2022-08-25T06:33:52.853Z,62.15
2022-08-25T06:36:20.402Z,62.47
2022-08-25T06:38:48.792Z,62.17
2022-08-25T06:41:15.933Z,62.19
2022-08-25T06:43:49.920Z,62.25
2022-08-25T06:46:21.659Z,62.18
2022-08-25T06:48:49.251Z,62.10
2022-08-25T06:51:21.203Z,62.16
2022-08-25T06:54:00.064Z,61.91
2022-08-25T06:56:26.846Z,61.66
2022-08-25T06:58:55.390Z,61.14
2022-08-25T07:01:25.909Z,61.05
2022-08-25T07:03:55.314Z,61.33
2022-08-25T07:06:24.680Z,61.16
2022-08-25T07:08:53.641Z,60.88
2022-08-25T07:11:26.674Z,60.51
2022-08-25T07:13:53.958Z,60.99
2022-08-25T07:16:30.196Z,60.89
2022-08-25T07:18:58.543Z,60.93
2022-08-25T07:21:32.610Z,61.06
2022-08-25T07:24:04.325Z,60.37
2022-08-25T07:26:37.747Z,60.85
2022-08-25T07:29:08.046Z,60.26
2022-08-25T07:31:35.087Z,60.60
2022-08-25T07:34:01.919Z,60.58
2022-08-25T07:36:31.266Z,60.19
2022-08-25T07:38:58.748Z,60.33
2022-08-25T07:41:27.159Z,60.34
2022-08-25T07:43:54.219Z,59.98
2022-08-25T07:46:21.102Z,59.81
2022-08-25T07:48:53.259Z,59.95
2022-08-25T07:51:20.517Z,59.82
2022-08-25T07:53:47.456Z,59.51
2022-08-25T07:56:16.969Z,59.52
2022-08-25T07:58:46.735Z,59.79
2022-08-25T08:01:15.314Z,59.36
2022-08-25T08:03:50.387Z,59.01
2022-08-25T08:06:20.633Z,58.86
2022-08-25T08:08:49.253Z,58.92
2022-08-25T08:11:17.471Z,58.43
2022-08-25T08:13:46.893Z,58.17
2022-08-25T08:16:19.094Z,58.13
2022-08-25T08:18:46.918Z,57.93
2022-08-25T08:21:19.136Z,57.77
2022-08-25T08:23:47.998Z,57.21
2022-08-25T08:26:17.770Z,57.62
2022-08-25T08:28:52.172Z,56.77
2022-08-25T08:31:19.863Z,56.88
2022-08-25T08:33:47.132Z,56.87
2022-08-25T08:36:14.880Z,56.58
2022-08-25T08:38:46.229Z,56.94
2022-08-25T08:41:26.867Z,56.82
2022-08-25T08:46:47.758Z,55.75
2022-08-25T08:49:22.515Z,55.42
2022-08-25T08:52:00.966Z,54.70
2022-08-25T08:54:34.208Z,54.49
2022-08-25T08:57:09.393Z,54.33
2022-08-25T08:59:46.048Z,54.01
2022-08-25T09:02:39.201Z,53.83
2022-08-25T09:05:14.188Z,53.81
2022-08-25T09:07:47.266Z,53.22
2022-08-25T09:10:14.879Z,53.16
2022-08-25T09:13:02.012Z,51.69
2022-08-25T09:15:50.488Z,50.42
2022-08-25T09:18:26.429Z,47.72
2022-08-25T09:21:09.731Z,47.82
2022-08-25T09:24:26.777Z,47.02
2022-08-25T09:27:47.411Z,44.62
2022-08-25T09:30:29.061Z,45.91
2022-08-25T09:34:30.946Z,45.58
2022-08-25T09:39:13.978Z,44.54
2022-08-25T09:41:56.738Z,45.06
2022-08-25T09:44:32.148Z,43.76
2022-08-25T09:47:33.013Z,40.95
2022-08-25T10:01:36.663Z,32.98
2022-08-25T10:05:08.820Z,34.63
2022-08-25T10:46:57.561Z,28.10
2022-08-25T10:49:53.046Z,26.49
2022-08-25T10:52:42.168Z,25.57
2022-08-25T10:55:25.487Z,26.75
2022-08-25T10:58:17.027Z,24.17
2022-08-25T11:00:54.863Z,24.77
2022-08-25T11:03:45.449Z,24.99
2022-08-25T11:06:19.797Z,24.38
2022-08-25T11:08:56.403Z,23.77
2022-08-25T11:11:32.881Z,24.28
2022-08-25T11:17:07.081Z,23.28
2022-08-25T11:19:44.616Z,23.35
2022-08-25T11:22:29.130Z,22.49
2022-08-25T11:25:32.733Z,21.45
2022-08-25T11:39:10.942Z,20.46
2022-08-25T11:42:31.632Z,19.75
2022-08-25T11:49:34.158Z,20.02
2022-08-25T12:05:57.037Z,19.30
2022-08-25T12:09:00.696Z,19.35
2022-08-25T12:12:33.754Z,19.27
2022-08-25T12:15:24.973Z,19.73
2022-08-25T15:09:55.386Z,20.01
2022-08-25T16:17:06.757Z,20.66
2022-08-25T16:19:53.586Z,21.31
2022-08-25T16:41:31.379Z,22.96
2022-08-25T17:36:43.451Z,30.27
2022-08-25T17:46:10.338Z,30.49
2022-08-25T17:53:00.577Z,31.55
2022-08-25T17:56:13.564Z,32.16
2022-08-25T17:58:38.770Z,31.43
2022-08-25T18:11:39.309Z,33.48
2022-08-25T18:14:38.063Z,33.80
2022-08-25T18:32:04.627Z,35.35
2022-08-25T18:41:33.972Z,36.31
2022-08-25T19:28:13.449Z,43.15
2022-08-25T19:42:38.584Z,44.44
2022-08-25T19:48:52.694Z,45.40
2022-08-25T20:38:27.159Z,52.64
